Time;durP1;ratioP1;P1;durP2;ratioP2;P2;SDS_P1;SDS_P2;PMS_P1;PMS_P2;Temp;Humidity;BMP_temperature;BMP_pressure;BME280_temperature;BME280_humidity;BME280_pressure;Samples;Min_cycle;Max_cycle;Signal;HPM_P1;HPM_P2
2022/06/13 00:00:39;;;;;;;1.30;1.20;;;;;;;;;;5079704;28;20217;-59
2022/06/13 00:03:07;;;;;;;1.83;1.20;;;;;;;;;;5080034;28;20227;-59
2022/06/13 00:05:35;;;;;;;2.25;1.20;;;;;;;;;;5079680;28;20200;-59
2022/06/13 00:08:03;;;;;;;1.73;1.27;;;;;;;;;;5079900;28;20204;-59
2022/06/13 00:10:30;;;;;;;1.48;1.25;;;;;;;;;;5079909;28;20204;-59
2022/06/13 00:12:59;;;;;;;1.30;1.20;;;;;;;;;;5079461;28;20193;-59
2022/06/13 00:15:26;;;;;;;1.40;1.30;;;;;;;;;;5079380;28;20223;-59
2022/06/13 00:17:54;;;;;;;1.30;1.20;;;;;;;;;;5079383;28;20205;-59
2022/06/13 00:20:22;;;;;;;1.48;1.15;;;;;;;;;;5079688;28;20208;-60
2022/06/13 00:22:49;;;;;;;1.45;0.98;;;;;;;;;;5079354;28;20193;-59
2022/06/13 00:25:17;;;;;;;1.17;1.08;;;;;;;;;;5079205;28;20220;-59
2022/06/13 00:27:44;;;;;;;1.75;1.15;;;;;;;;;;5078944;28;20580;-59
2022/06/13 00:30:13;;;;;;;1.00;1.00;;;;;;;;;;5078325;28;20196;-59
2022/06/13 00:32:41;;;;;;;1.92;1.30;;;;;;;;;;5079355;28;20200;-59
2022/06/13 00:35:09;;;;;;;2.15;1.17;;;;;;;;;;5078707;28;20206;-59
2022/06/13 00:37:37;;;;;;;1.10;1.00;;;;;;;;;;5079228;28;20227;-60
2022/06/13 00:40:04;;;;;;;1.30;1.20;;;;;;;;;;5077660;28;20196;-60
2022/06/13 00:42:32;;;;;;;1.40;1.20;;;;;;;;;;5078873;28;20294;-60
2022/06/13 00:45:05;;;;;;;1.70;1.20;;;;;;;;;;5079382;28;20217;-60
2022/06/13 00:47:34;;;;;;;1.23;1.00;;;;;;;;;;5078326;28;20192;-60
2022/06/13 00:50:02;;;;;;;1.50;1.30;;;;;;;;;;5078904;28;20330;-60
2022/06/13 00:52:32;;;;;;;1.80;1.20;;;;;;;;;;5079289;28;20204;-60
2022/06/13 00:55:00;;;;;;;1.23;1.13;;;;;;;;;;5062320;28;20196;-60
2022/06/13 00:57:31;;;;;;;1.45;1.23;;;;;;;;;;5079053;28;20497;-60
2022/06/13 01:00:02;;;;;;;1.20;1.02;;;;;;;;;;5077809;28;20192;-60
2022/06/13 01:02:30;;;;;;;1.33;1.00;;;;;;;;;;5077976;28;20279;-60
2022/06/13 01:04:59;;;;;;;1.83;1.50;;;;;;;;;;5078380;28;20200;-60
2022/06/13 01:07:29;;;;;;;1.98;1.35;;;;;;;;;;5079516;28;20287;-60
2022/06/13 01:12:42;;;;;;;1.30;1.20;;;;;;;;;;5078552;28;20242;-60
2022/06/13 01:15:16;;;;;;;2.65;1.38;;;;;;;;;;5078399;28;20201;-60
2022/06/13 01:17:49;;;;;;;1.40;1.30;;;;;;;;;;5078330;28;20244;-59
2022/06/13 01:20:26;;;;;;;1.60;1.50;;;;;;;;;;5058937;28;20205;-59
2022/06/13 01:23:08;;;;;;;1.52;1.38;;;;;;;;;;5061391;28;20211;-60
2022/06/13 01:25:50;;;;;;;1.42;1.15;;;;;;;;;;5078080;28;20216;-60
2022/06/13 01:28:51;;;;;;;1.88;1.10;;;;;;;;;;5061612;28;20218;-59
2022/06/13 01:31:23;;;;;;;2.30;1.40;;;;;;;;;;4996527;28;20246;-60
2022/06/13 01:33:57;;;;;;;1.50;1.40;;;;;;;;;;4996758;28;20231;-60
2022/06/13 01:36:39;;;;;;;1.38;1.20;;;;;;;;;;5039899;28;20610;-60
2022/06/13 01:39:16;;;;;;;1.20;1.10;;;;;;;;;;5075725;28;20200;-60
2022/06/13 01:41:48;;;;;;;1.73;1.20;;;;;;;;;;5077684;28;20211;-60
2022/06/13 01:44:19;;;;;;;1.30;1.20;;;;;;;;;;5078442;28;20545;-60
2022/06/13 01:46:54;;;;;;;1.20;1.10;;;;;;;;;;5078107;28;20197;-59
2022/06/13 01:49:25;;;;;;;1.40;1.30;;;;;;;;;;5077726;28;20235;-60
2022/06/13 01:51:57;;;;;;;1.30;1.20;;;;;;;;;;5078276;28;20204;-60
2022/06/13 01:54:30;;;;;;;1.65;1.17;;;;;;;;;;5077820;28;20214;-60
2022/06/13 01:57:01;;;;;;;1.38;1.27;;;;;;;;;;5076666;28;20262;-59
2022/06/13 01:59:33;;;;;;;1.30;1.20;;;;;;;;;;5076810;28;20200;-60
2022/06/13 02:02:06;;;;;;;1.25;1.10;;;;;;;;;;5060773;28;20208;-60
2022/06/13 02:04:35;;;;;;;1.40;1.30;;;;;;;;;;5077173;28;20203;-60
2022/06/13 02:07:05;;;;;;;1.80;1.30;;;;;;;;;;5077603;28;20594;-60
2022/06/13 02:09:35;;;;;;;1.77;1.35;;;;;;;;;;5077794;28;20594;-60
2022/06/13 02:12:03;;;;;;;1.20;1.10;;;;;;;;;;5078081;28;20487;-60
2022/06/13 02:14:33;;;;;;;1.30;1.20;;;;;;;;;;5078203;28;20204;-60
2022/06/13 02:17:08;;;;;;;1.67;1.40;;;;;;;;;;5077844;28;20239;-60
2022/06/13 02:19:42;;;;;;;1.20;1.10;;;;;;;;;;5077827;28;20496;-60
2022/06/13 02:22:11;;;;;;;1.45;1.10;;;;;;;;;;5078257;28;20204;-60
2022/06/13 02:24:40;;;;;;;1.30;1.20;;;;;;;;;;5077942;28;20211;-60
2022/06/13 02:27:09;;;;;;;1.25;1.15;;;;;;;;;;5078097;28;20579;-60
2022/06/13 02:29:39;;;;;;;1.40;1.30;;;;;;;;;;5077927;28;20469;-60
2022/06/13 02:32:08;;;;;;;2.00;1.55;;;;;;;;;;5077954;28;20544;-60
2022/06/13 02:34:39;;;;;;;1.38;1.27;;;;;;;;;;5077777;28;20223;-60
2022/06/13 02:37:09;;;;;;;1.85;1.35;;;;;;;;;;5077309;28;20224;-60
2022/06/13 02:39:39;;;;;;;1.30;1.20;;;;;;;;;;5077263;28;20215;-60
2022/06/13 02:42:09;;;;;;;1.30;1.20;;;;;;;;;;5077622;28;20572;-61
2022/06/13 02:44:39;;;;;;;1.50;1.30;;;;;;;;;;5077423;28;20200;-60
2022/06/13 02:47:10;;;;;;;1.70;1.60;;;;;;;;;;5077144;28;20228;-60
2022/06/13 02:49:40;;;;;;;1.45;1.35;;;;;;;;;;5077089;28;20305;-60
2022/06/13 02:52:11;;;;;;;1.35;1.25;;;;;;;;;;5076642;28;20672;-60
2022/06/13 02:54:44;;;;;;;1.48;1.38;;;;;;;;;;5080607;28;20714;-60
2022/06/13 02:57:25;;;;;;;1.58;1.30;;;;;;;;;;5080615;28;20551;-60
2022/06/13 03:00:05;;;;;;;1.50;1.40;;;;;;;;;;5080667;28;20538;-60
2022/06/13 03:02:37;;;;;;;1.33;1.23;;;;;;;;;;5062307;28;20208;-60
2022/06/13 03:05:10;;;;;;;1.40;1.30;;;;;;;;;;5080255;28;20200;-60
2022/06/13 03:07:40;;;;;;;1.27;1.23;;;;;;;;;;5080436;28;20207;-60
2022/06/13 03:10:11;;;;;;;1.50;1.40;;;;;;;;;;5077967;28;20203;-60
2022/06/13 03:12:43;;;;;;;1.33;1.23;;;;;;;;;;5079826;28;20200;-60
2022/06/13 03:15:14;;;;;;;1.45;1.35;;;;;;;;;;5080181;28;20200;-60
2022/06/13 03:17:44;;;;;;;1.83;1.20;;;;;;;;;;5079475;28;20238;-60
2022/06/13 03:20:15;;;;;;;1.23;1.10;;;;;;;;;;5081178;28;20219;-60
2022/06/13 03:22:46;;;;;;;1.38;1.27;;;;;;;;;;5080120;28;20200;-60
2022/06/13 03:25:16;;;;;;;1.65;1.17;;;;;;;;;;5079857;28;20210;-60
2022/06/13 03:27:46;;;;;;;1.08;1.08;;;;;;;;;;5080075;28;20196;-60
2022/06/13 03:30:16;;;;;;;1.20;1.10;;;;;;;;;;5080060;28;20196;-60
2022/06/13 03:33:39;;;;;;;1.35;1.20;;;;;;;;;;5080399;28;20231;-60
2022/06/13 03:35:36;;;;;;;1.83;1.30;;;;;;;;;;5079887;28;20211;-60
2022/06/13 03:38:04;;;;;;;1.30;1.20;;;;;;;;;;5079886;28;20217;-60
2022/06/13 03:40:32;;;;;;;1.20;1.10;;;;;;;;;;5080217;28;20246;-60
2022/06/13 03:43:06;;;;;;;1.10;1.00;;;;;;;;;;5080446;28;20206;-60
2022/06/13 03:45:36;;;;;;;2.10;1.10;;;;;;;;;;5079977;28;20196;-61
2022/06/13 03:48:05;;;;;;;1.23;1.08;;;;;;;;;;5080213;28;20301;-60
2022/06/13 03:50:34;;;;;;;1.42;1.33;;;;;;;;;;5079127;28;20236;-60
2022/06/13 03:53:05;;;;;;;1.65;1.20;;;;;;;;;;5078883;28;20208;-60
2022/06/13 03:55:36;;;;;;;1.63;1.20;;;;;;;;;;5079183;28;20200;-60
2022/06/13 03:58:06;;;;;;;1.20;1.10;;;;;;;;;;5079438;28;20618;-60
2022/06/13 04:00:38;;;;;;;1.70;1.40;;;;;;;;;;5079157;28;20212;-60
2022/06/13 04:03:06;;;;;;;1.27;1.17;;;;;;;;;;5079405;28;20216;-60
2022/06/13 04:05:37;;;;;;;1.30;1.20;;;;;;;;;;5078758;28;20478;-60
2022/06/13 04:08:08;;;;;;;1.77;1.20;;;;;;;;;;5079137;28;20195;-60
2022/06/13 04:10:40;;;;;;;1.20;1.10;;;;;;;;;;5078766;28;20215;-61
2022/06/13 04:13:18;;;;;;;1.40;1.20;;;;;;;;;;5079252;28;20575;-60
2022/06/13 04:16:01;;;;;;;1.40;1.25;;;;;;;;;;5079708;28;20204;-67
2022/06/13 04:18:36;;;;;;;1.27;1.17;;;;;;;;;;5078944;28;20224;-59
2022/06/13 04:21:09;;;;;;;1.60;1.45;;;;;;;;;;5078411;28;20200;-60
2022/06/13 04:23:42;;;;;;;1.20;1.10;;;;;;;;;;5078803;28;20220;-60
2022/06/13 04:26:12;;;;;;;1.67;1.55;;;;;;;;;;5078587;28;20588;-60
2022/06/13 04:28:44;;;;;;;2.33;1.17;;;;;;;;;;5078206;28;20201;-60
2022/06/13 04:31:12;;;;;;;1.35;1.20;;;;;;;;;;5078245;28;20703;-60
2022/06/13 04:33:43;;;;;;;1.42;1.33;;;;;;;;;;5078339;28;20204;-60
2022/06/13 04:36:11;;;;;;;1.50;1.40;;;;;;;;;;5078112;28;20204;-60
2022/06/13 04:38:41;;;;;;;1.30;1.20;;;;;;;;;;5077375;28;20235;-60
2022/06/13 04:41:10;;;;;;;1.63;1.02;;;;;;;;;;5077741;28;20205;-60
2022/06/13 04:43:43;;;;;;;1.40;1.30;;;;;;;;;;5077119;28;20235;-60
2022/06/13 04:46:13;;;;;;;1.27;1.15;;;;;;;;;;5076818;28;20204;-60
2022/06/13 04:48:41;;;;;;;1.25;1.15;;;;;;;;;;5076436;28;20227;-60
2022/06/13 04:51:10;;;;;;;1.17;1.08;;;;;;;;;;5077242;28;20223;-60
2022/06/13 04:53:40;;;;;;;1.52;1.30;;;;;;;;;;5077048;28;20193;-60
2022/06/13 04:56:09;;;;;;;1.48;1.38;;;;;;;;;;5076707;28;20204;-60
2022/06/13 04:58:37;;;;;;;1.30;1.20;;;;;;;;;;5076070;28;20220;-60
2022/06/13 05:01:06;;;;;;;1.10;1.00;;;;;;;;;;5075760;28;20200;-60
2022/06/13 05:03:37;;;;;;;1.30;1.20;;;;;;;;;;5074883;28;20579;-60
2022/06/13 05:06:07;;;;;;;1.17;1.08;;;;;;;;;;5074631;28;20207;-60
2022/06/13 05:08:35;;;;;;;1.92;1.15;;;;;;;;;;5074472;28;20253;-60
2022/06/13 05:11:06;;;;;;;1.17;1.08;;;;;;;;;;5074504;28;20212;-60
2022/06/13 05:13:35;;;;;;;1.25;1.15;;;;;;;;;;5058465;28;20204;-61
2022/06/13 05:16:07;;;;;;;1.23;1.13;;;;;;;;;;5073902;28;20622;-60
2022/06/13 05:18:42;;;;;;;2.03;1.30;;;;;;;;;;5074894;28;20231;-60
2022/06/13 05:21:24;;;;;;;1.30;1.20;;;;;;;;;;5075000;28;20210;-60
2022/06/13 05:24:01;;;;;;;1.20;1.10;;;;;;;;;;5074499;28;20192;-60
2022/06/13 05:26:29;;;;;;;1.15;1.05;;;;;;;;;;5076053;28;20629;-60
2022/06/13 05:29:00;;;;;;;1.20;1.10;;;;;;;;;;5075623;28;20286;-60
2022/06/13 05:31:27;;;;;;;2.08;1.40;;;;;;;;;;5072754;28;20192;-60
2022/06/13 05:33:55;;;;;;;1.30;1.20;;;;;;;;;;5072955;28;20205;-60
2022/06/13 05:36:24;;;;;;;1.33;1.20;;;;;;;;;;5073324;28;20208;-60
2022/06/13 05:38:52;;;;;;;1.80;1.35;;;;;;;;;;5073450;28;20216;-60
2022/06/13 05:41:20;;;;;;;1.73;1.10;;;;;;;;;;5072900;28;20228;-60
2022/06/13 05:43:48;;;;;;;1.55;1.20;;;;;;;;;;5072762;28;20609;-60
2022/06/13 05:46:20;;;;;;;1.30;1.10;;;;;;;;;;5072866;28;20200;-60
2022/06/13 05:48:47;;;;;;;1.38;1.20;;;;;;;;;;5071907;28;20197;-60
2022/06/13 05:51:14;;;;;;;1.30;1.05;;;;;;;;;;5072575;28;20211;-60
2022/06/13 05:53:42;;;;;;;1.38;1.20;;;;;;;;;;5071543;28;20200;-60
2022/06/13 05:56:12;;;;;;;1.45;1.30;;;;;;;;;;5071809;28;20213;-60
2022/06/13 05:58:39;;;;;;;1.40;1.10;;;;;;;;;;5072831;28;20495;-60
2022/06/13 06:01:07;;;;;;;1.95;1.25;;;;;;;;;;5073059;28;20282;-60
2022/06/13 06:03:36;;;;;;;1.48;1.20;;;;;;;;;;5072499;28;20319;-60
2022/06/13 06:06:03;;;;;;;1.10;1.00;;;;;;;;;;5073129;28;20211;-60
2022/06/13 06:08:33;;;;;;;1.92;1.25;;;;;;;;;;5072980;28;20192;-60
2022/06/13 06:11:01;;;;;;;1.58;1.30;;;;;;;;;;5073907;28;20204;-60
2022/06/13 06:13:30;;;;;;;1.73;1.23;;;;;;;;;;5073120;28;20726;-60
2022/06/13 06:15:58;;;;;;;1.70;1.30;;;;;;;;;;5073068;28;20269;-60
2022/06/13 06:18:26;;;;;;;2.63;1.20;;;;;;;;;;5073585;28;20227;-60
2022/06/13 06:20:55;;;;;;;1.23;1.10;;;;;;;;;;5074628;28;20204;-60
2022/06/13 06:23:23;;;;;;;1.85;1.25;;;;;;;;;;5076094;28;20200;-60
2022/06/13 06:25:50;;;;;;;2.25;1.20;;;;;;;;;;5076260;28;20919;-60
2022/06/13 06:28:19;;;;;;;1.70;1.13;;;;;;;;;;5078523;28;20698;-60
2022/06/13 06:30:46;;;;;;;1.45;1.33;;;;;;;;;;5079081;28;20261;-60
2022/06/13 06:33:14;;;;;;;2.55;1.38;;;;;;;;;;5078694;28;20202;-60
2022/06/13 06:35:42;;;;;;;1.80;1.20;;;;;;;;;;5077514;28;20200;-60
2022/06/13 06:38:11;;;;;;;2.47;1.35;;;;;;;;;;5076953;28;20500;-60
2022/06/13 06:40:39;;;;;;;2.22;1.30;;;;;;;;;;5077757;28;20602;-60
2022/06/13 06:43:06;;;;;;;1.95;1.30;;;;;;;;;;5076940;28;20644;-60
2022/06/13 06:45:34;;;;;;;1.38;1.27;;;;;;;;;;5077980;28;20337;-60
2022/06/13 06:48:02;;;;;;;2.13;1.40;;;;;;;;;;5078453;28;20204;-60
2022/06/13 06:50:34;;;;;;;2.38;1.30;;;;;;;;;;5075934;28;20224;-60
2022/06/13 06:53:03;;;;;;;1.92;1.38;;;;;;;;;;5076889;28;20459;-60
2022/06/13 07:01:12;;;;;;;1.88;1.20;;;;;;;;;;5076770;28;20188;-60
2022/06/13 07:04:05;;;;;;;2.65;1.55;;;;;;;;;;5078650;28;20675;-60
2022/06/13 07:09:36;;;;;;;2.75;1.40;;;;;;;;;;5541223;22;20275;-59
2022/06/13 07:12:06;;;;;;;1.92;1.67;;;;;;;;;;5078229;28;20201;-60
2022/06/13 07:14:34;;;;;;;3.25;1.80;;;;;;;;;;5078883;28;20269;-60
2022/06/13 07:17:03;;;;;;;2.17;1.60;;;;;;;;;;5078593;28;20482;-60
2022/06/13 07:19:32;;;;;;;4.00;2.13;;;;;;;;;;5077655;28;20264;-60
2022/06/13 07:21:59;;;;;;;4.13;1.80;;;;;;;;;;5077216;28;20266;-59
2022/06/13 07:24:27;;;;;;;2.55;1.73;;;;;;;;;;5076967;28;20212;-60
2022/06/13 07:26:56;;;;;;;3.15;1.80;;;;;;;;;;5076651;28;20636;-59
2022/06/13 07:29:24;;;;;;;3.33;1.95;;;;;;;;;;5077634;28;20205;-59
2022/06/13 07:31:58;;;;;;;3.63;2.00;;;;;;;;;;5075329;28;20239;-59
2022/06/13 07:34:27;;;;;;;3.80;1.75;;;;;;;;;;5058741;28;20515;-60
2022/06/13 07:36:55;;;;;;;2.95;2.10;;;;;;;;;;5074040;28;20212;-59
2022/06/13 07:39:23;;;;;;;2.67;1.92;;;;;;;;;;5075139;28;20244;-60
2022/06/13 07:41:51;;;;;;;3.08;2.00;;;;;;;;;;5075584;28;20487;-60
2022/06/13 07:44:21;;;;;;;3.35;2.03;;;;;;;;;;5075063;28;20197;-60
2022/06/13 07:46:51;;;;;;;2.97;2.00;;;;;;;;;;5074453;28;20216;-60
2022/06/13 07:49:19;;;;;;;2.75;1.98;;;;;;;;;;5075149;28;20204;-60
2022/06/13 07:51:47;;;;;;;4.07;2.05;;;;;;;;;;5073994;28;20645;-60
2022/06/13 07:54:15;;;;;;;16.58;3.05;;;;;;;;;;5074707;28;20247;-67
2022/06/13 07:56:44;;;;;;;6.45;2.30;;;;;;;;;;5075440;28;20193;-59
2022/06/13 07:59:13;;;;;;;4.00;1.83;;;;;;;;;;5075599;28;20217;-63
2022/06/13 08:01:41;;;;;;;7.60;2.13;;;;;;;;;;5074875;28;20287;-59
2022/06/13 08:04:10;;;;;;;4.00;1.92;;;;;;;;;;5075664;28;20232;-62
2022/06/13 08:06:41;;;;;;;6.22;2.03;;;;;;;;;;5075995;28;20223;-63
2022/06/13 08:09:09;;;;;;;3.22;1.98;;;;;;;;;;5075725;28;20208;-62
2022/06/13 08:11:37;;;;;;;4.85;2.25;;;;;;;;;;5076489;28;20216;-62
2022/06/13 08:14:07;;;;;;;3.72;2.20;;;;;;;;;;5075771;28;20232;-62
2022/06/13 08:16:35;;;;;;;4.40;2.33;;;;;;;;;;5060573;28;20228;-62
2022/06/13 08:19:03;;;;;;;4.47;2.45;;;;;;;;;;5075615;28;20256;-63
2022/06/13 08:21:32;;;;;;;3.05;2.10;;;;;;;;;;5076727;28;20223;-62
2022/06/13 08:24:00;;;;;;;3.20;2.25;;;;;;;;;;5075095;28;20274;-62
2022/06/13 08:26:28;;;;;;;3.97;2.20;;;;;;;;;;5074288;28;20226;-62
2022/06/13 08:28:56;;;;;;;2.63;1.90;;;;;;;;;;5074316;28;20193;-63
2022/06/13 08:31:24;;;;;;;2.38;2.00;;;;;;;;;;5075486;28;20200;-62
2022/06/13 08:33:51;;;;;;;3.95;2.40;;;;;;;;;;5074319;28;20196;-62
2022/06/13 08:36:21;;;;;;;3.67;1.85;;;;;;;;;;5073473;28;20231;-62
2022/06/13 08:38:50;;;;;;;3.40;2.22;;;;;;;;;;5072538;28;20224;-63
2022/06/13 08:41:32;;;;;;;3.83;2.38;;;;;;;;;;5073847;28;20212;-62
2022/06/13 08:44:10;;;;;;;3.13;2.20;;;;;;;;;;5073624;28;20211;-63
2022/06/13 08:46:43;;;;;;;3.55;2.13;;;;;;;;;;5055921;28;20287;-63
2022/06/13 08:49:12;;;;;;;3.72;1.90;;;;;;;;;;5073880;28;20196;-62
2022/06/13 08:51:45;;;;;;;2.85;2.00;;;;;;;;;;5072515;28;20274;-62
2022/06/13 08:54:16;;;;;;;2.55;2.00;;;;;;;;;;5073602;28;20540;-62
2022/06/13 08:56:45;;;;;;;3.08;2.00;;;;;;;;;;5073760;28;20657;-62
2022/06/13 08:59:24;;;;;;;2.83;2.15;;;;;;;;;;5073556;28;20227;-63
2022/06/13 09:01:53;;;;;;;3.53;1.98;;;;;;;;;;5073373;28;20579;-62
2022/06/13 09:04:23;;;;;;;2.22;1.95;;;;;;;;;;5071681;28;20496;-62
2022/06/13 09:06:54;;;;;;;2.45;1.95;;;;;;;;;;5072638;28;20231;-62
2022/06/13 09:09:26;;;;;;;4.97;2.70;;;;;;;;;;5073057;28;20197;-62
2022/06/13 09:11:56;;;;;;;3.20;2.00;;;;;;;;;;5072636;28;20231;-62
2022/06/13 09:14:29;;;;;;;2.80;2.20;;;;;;;;;;5073369;28;20193;-62
2022/06/13 09:17:01;;;;;;;3.10;2.30;;;;;;;;;;5070147;28;20192;-62
2022/06/13 09:19:31;;;;;;;2.70;1.83;;;;;;;;;;5073673;28;20212;-62
2022/06/13 09:22:03;;;;;;;2.70;2.10;;;;;;;;;;5072763;28;20303;-62
2022/06/13 09:24:36;;;;;;;3.00;2.10;;;;;;;;;;5071906;28;20200;-62
2022/06/13 09:27:07;;;;;;;3.03;2.00;;;;;;;;;;5073224;28;20204;-64
2022/06/13 09:29:39;;;;;;;2.50;2.03;;;;;;;;;;5073198;28;20215;-62
2022/06/13 09:32:10;;;;;;;3.22;2.25;;;;;;;;;;5072657;28;20575;-62
2022/06/13 09:34:40;;;;;;;3.25;2.30;;;;;;;;;;5071539;28;20316;-62
2022/06/13 09:37:11;;;;;;;3.40;2.20;;;;;;;;;;5072118;28;20602;-62
2022/06/13 09:39:41;;;;;;;2.97;2.38;;;;;;;;;;5071751;28;20212;-62
2022/06/13 09:42:20;;;;;;;2.42;2.08;;;;;;;;;;5072542;28;20201;-63
2022/06/13 09:44:54;;;;;;;3.08;2.10;;;;;;;;;;5056472;28;20200;-62
2022/06/13 09:47:24;;;;;;;1.95;1.75;;;;;;;;;;5053954;28;20216;-62
2022/06/13 09:49:56;;;;;;;3.65;2.47;;;;;;;;;;5072967;28;20253;-62
2022/06/13 09:52:28;;;;;;;2.90;2.40;;;;;;;;;;5072785;28;20243;-62
2022/06/13 09:55:03;;;;;;;2.65;2.20;;;;;;;;;;5071772;28;20558;-62
2022/06/13 09:57:36;;;;;;;3.35;2.05;;;;;;;;;;5072202;28;20243;-62
2022/06/13 10:00:08;;;;;;;3.58;2.20;;;;;;;;;;5071182;28;20222;-62
2022/06/13 10:02:39;;;;;;;3.08;2.08;;;;;;;;;;5071500;28;20188;-62
2022/06/13 10:05:15;;;;;;;2.10;1.80;;;;;;;;;;5072579;28;20239;-62
2022/06/13 10:07:47;;;;;;;2.50;2.10;;;;;;;;;;5071652;28;20227;-62
2022/06/13 10:10:20;;;;;;;4.03;2.30;;;;;;;;;;5071875;28;20331;-62
2022/06/13 10:12:52;;;;;;;2.63;2.13;;;;;;;;;;5072463;28;20204;-62
2022/06/13 10:15:25;;;;;;;3.63;2.35;;;;;;;;;;5070211;28;20689;-62
2022/06/13 10:18:00;;;;;;;3.25;2.17;;;;;;;;;;5071728;28;20204;-62
2022/06/13 10:20:31;;;;;;;3.97;2.30;;;;;;;;;;5071146;28;20219;-62
2022/06/13 10:23:01;;;;;;;4.63;2.40;;;;;;;;;;5069563;28;20199;-62
2022/06/13 10:25:40;;;;;;;3.13;2.38;;;;;;;;;;5071056;28;20247;-62
2022/06/13 10:28:15;;;;;;;2.83;2.40;;;;;;;;;;5070238;28;20299;-62
2022/06/13 10:30:48;;;;;;;3.67;2.40;;;;;;;;;;5068814;28;20649;-62
2022/06/13 10:33:23;;;;;;;2.65;2.17;;;;;;;;;;5069974;28;20444;-62
2022/06/13 10:35:54;;;;;;;3.70;2.03;;;;;;;;;;5071063;28;20664;-62
2022/06/13 10:38:29;;;;;;;3.97;2.28;;;;;;;;;;5070147;28;20223;-62
2022/06/13 10:40:59;;;;;;;3.88;2.17;;;;;;;;;;5069576;28;20255;-62
2022/06/13 10:43:27;;;;;;;3.53;1.85;;;;;;;;;;5071072;28;20700;-62
2022/06/13 10:45:55;;;;;;;5.07;1.90;;;;;;;;;;5071201;28;20208;-62
2022/06/13 10:48:25;;;;;;;2.63;1.80;;;;;;;;;;5069263;28;20235;-62
2022/06/13 10:50:55;;;;;;;4.70;2.40;;;;;;;;;;5069677;28;20261;-62
2022/06/13 10:53:24;;;;;;;3.33;1.90;;;;;;;;;;5071293;28;20204;-62
2022/06/13 10:55:53;;;;;;;1.67;1.55;;;;;;;;;;5070142;28;20455;-62
2022/06/13 10:58:26;;;;;;;4.75;2.00;;;;;;;;;;5070147;28;20622;-62
2022/06/13 11:01:08;;;;;;;3.13;1.65;;;;;;;;;;5070356;28;20268;-62
2022/06/13 11:03:36;;;;;;;2.90;1.77;;;;;;;;;;5070920;28;20214;-62
2022/06/13 11:06:05;;;;;;;2.60;1.98;;;;;;;;;;5070956;28;20285;-62
2022/06/13 11:08:33;;;;;;;2.10;1.88;;;;;;;;;;5070870;28;20201;-62
2022/06/13 11:11:02;;;;;;;3.28;1.98;;;;;;;;;;5070941;28;20255;-62
2022/06/13 11:13:34;;;;;;;3.72;1.90;;;;;;;;;;5071553;28;20313;-62
2022/06/13 11:24:23;;;;;;;2.95;2.03;;;;;;;;;;5073492;28;20242;-62
2022/06/13 11:29:39;;;;;;;3.33;1.95;;;;;;;;;;5074130;28;20204;-62
2022/06/13 11:32:08;;;;;;;3.88;2.13;;;;;;;;;;5073148;28;20274;-62
2022/06/13 11:34:38;;;;;;;2.55;2.08;;;;;;;;;;5073448;28;20212;-62
2022/06/13 11:37:06;;;;;;;2.25;1.90;;;;;;;;;;5071745;28;20279;-62
2022/06/13 11:39:36;;;;;;;3.17;2.00;;;;;;;;;;5074350;28;20220;-62
2022/06/13 11:42:05;;;;;;;2.45;1.80;;;;;;;;;;5074319;28;20323;-62
2022/06/13 11:44:34;;;;;;;2.38;1.95;;;;;;;;;;5072878;28;20200;-62
2022/06/13 11:47:04;;;;;;;2.50;1.90;;;;;;;;;;5073269;28;20228;-62
2022/06/13 11:49:34;;;;;;;2.38;1.92;;;;;;;;;;5053525;28;20202;-62
2022/06/13 11:52:05;;;;;;;3.15;2.10;;;;;;;;;;5062460;28;20200;-62
2022/06/13 11:54:34;;;;;;;2.53;1.85;;;;;;;;;;5072584;28;20206;-62
2022/06/13 11:57:21;;;;;;;2.75;1.75;;;;;;;;;;5072392;28;20291;-62
2022/06/13 11:59:50;;;;;;;3.35;1.88;;;;;;;;;;5071970;28;20630;-63
2022/06/13 12:02:20;;;;;;;2.50;1.70;;;;;;;;;;5072413;28;20291;-62
2022/06/13 12:04:47;;;;;;;3.65;2.10;;;;;;;;;;5073097;28;20295;-62
2022/06/13 12:07:26;;;;;;;2.38;1.60;;;;;;;;;;5073204;28;20236;-62
2022/06/13 12:09:55;;;;;;;2.70;1.90;;;;;;;;;;5072147;28;20235;-62
2022/06/13 12:12:24;;;;;;;2.92;1.70;;;;;;;;;;5073092;28;20679;-62
2022/06/13 12:14:51;;;;;;;2.78;1.73;;;;;;;;;;5072233;28;20200;-62
2022/06/13 12:17:22;;;;;;;2.63;1.65;;;;;;;;;;5072689;28;20235;-62
2022/06/13 12:19:52;;;;;;;3.97;1.70;;;;;;;;;;5072417;28;20335;-62
2022/06/13 12:22:21;;;;;;;3.13;1.90;;;;;;;;;;5071014;28;20328;-62
2022/06/13 12:24:54;;;;;;;2.03;1.70;;;;;;;;;;5072311;28;20761;-66
2022/06/13 12:27:25;;;;;;;2.88;1.67;;;;;;;;;;5072327;28;20655;-62
2022/06/13 12:30:05;;;;;;;2.92;1.52;;;;;;;;;;5069236;28;20200;-62
2022/06/13 12:32:36;;;;;;;3.33;1.67;;;;;;;;;;5071068;28;20287;-62
2022/06/13 12:35:14;;;;;;;3.22;1.65;;;;;;;;;;5071089;28;20547;-62
2022/06/13 12:37:46;;;;;;;2.50;1.55;;;;;;;;;;5070761;28;20196;-62
2022/06/13 12:40:22;;;;;;;2.67;1.77;;;;;;;;;;5070089;28;20235;-62
2022/06/13 12:43:01;;;;;;;2.63;1.73;;;;;;;;;;5071712;28;20234;-62
2022/06/13 12:45:37;;;;;;;2.60;1.70;;;;;;;;;;5064397;28;20279;-62
2022/06/13 12:48:12;;;;;;;2.67;1.73;;;;;;;;;;5074642;28;20571;-62
2022/06/13 12:51:01;;;;;;;2.72;1.63;;;;;;;;;;5073390;28;20299;-62
2022/06/13 12:53:35;;;;;;;2.50;1.60;;;;;;;;;;5071201;28;20210;-62
2022/06/13 12:56:09;;;;;;;3.67;1.50;;;;;;;;;;5071138;28;20200;-62
2022/06/13 12:58:41;;;;;;;2.60;1.50;;;;;;;;;;5071119;28;20210;-62
2022/06/13 13:01:12;;;;;;;2.13;1.60;;;;;;;;;;5071192;28;20220;-62
2022/06/13 13:03:58;;;;;;;2.17;1.50;;;;;;;;;;5072582;28;20283;-62
2022/06/13 13:06:31;;;;;;;2.40;1.50;;;;;;;;;;5071613;28;20192;-62
2022/06/13 13:09:07;;;;;;;1.95;1.55;;;;;;;;;;5072362;28;20208;-62
2022/06/13 13:11:55;;;;;;;2.03;1.60;;;;;;;;;;5073013;28;20190;-62
2022/06/13 13:14:28;;;;;;;2.45;1.60;;;;;;;;;;5037432;28;20741;-62
2022/06/13 13:16:58;;;;;;;4.18;1.77;;;;;;;;;;5069994;28;20642;-62
2022/06/13 13:19:31;;;;;;;2.40;1.60;;;;;;;;;;5070911;28;20566;-62
2022/06/13 13:22:02;;;;;;;3.60;1.60;;;;;;;;;;5071869;28;20204;-62
2022/06/13 13:24:40;;;;;;;2.15;1.73;;;;;;;;;;5071885;28;20269;-62
2022/06/13 13:27:11;;;;;;;3.20;1.52;;;;;;;;;;5070472;28;20553;-62
2022/06/13 13:29:43;;;;;;;2.75;1.85;;;;;;;;;;5070854;28;20204;-62
2022/06/13 13:32:15;;;;;;;3.00;1.70;;;;;;;;;;5071230;28;20293;-62
2022/06/13 13:34:47;;;;;;;2.53;1.60;;;;;;;;;;5071751;28;20305;-63
2022/06/13 13:37:21;;;;;;;2.78;1.63;;;;;;;;;;5069486;28;20291;-62
2022/06/13 13:39:51;;;;;;;1.80;1.58;;;;;;;;;;5070032;28;20230;-62
2022/06/13 13:42:23;;;;;;;2.25;1.60;;;;;;;;;;5071154;28;20307;-62
2022/06/13 13:44:54;;;;;;;2.90;1.55;;;;;;;;;;5070093;28;20650;-62
2022/06/13 13:47:23;;;;;;;3.38;1.60;;;;;;;;;;5071703;28;20295;-62
2022/06/13 13:49:53;;;;;;;2.55;1.55;;;;;;;;;;5071936;28;20309;-62
2022/06/13 13:52:24;;;;;;;1.73;1.50;;;;;;;;;;5071046;28;20316;-61
2022/06/13 13:54:53;;;;;;;2.60;1.52;;;;;;;;;;5068958;28;20246;-62
2022/06/13 13:57:21;;;;;;;2.90;1.60;;;;;;;;;;5070250;28;20587;-62
2022/06/13 13:59:51;;;;;;;2.75;1.50;;;;;;;;;;5069554;28;20285;-62
2022/06/13 14:02:23;;;;;;;2.20;1.50;;;;;;;;;;5072003;28;20232;-62
2022/06/13 14:04:59;;;;;;;2.35;1.60;;;;;;;;;;5069133;28;20231;-62
2022/06/13 14:07:42;;;;;;;3.20;1.40;;;;;;;;;;5052796;28;20266;-63
2022/06/13 14:10:11;;;;;;;3.05;1.83;;;;;;;;;;5070643;28;20282;-62
2022/06/13 14:12:54;;;;;;;2.17;1.52;;;;;;;;;;5070477;28;20220;-63
2022/06/13 14:15:31;;;;;;;2.53;1.48;;;;;;;;;;5067481;28;20188;-63
2022/06/13 14:17:59;;;;;;;2.85;1.55;;;;;;;;;;5069654;28;20579;-62
2022/06/13 14:20:28;;;;;;;2.25;1.75;;;;;;;;;;5069946;28;20313;-62
2022/06/13 14:23:00;;;;;;;3.83;1.80;;;;;;;;;;5070298;28;20200;-62
2022/06/13 14:25:36;;;;;;;3.10;1.90;;;;;;;;;;5069491;28;20493;-62
2022/06/13 14:28:05;;;;;;;1.73;1.63;;;;;;;;;;5069736;28;20579;-62
2022/06/13 14:36:01;;;;;;;2.80;1.75;;;;;;;;;;5034432;28;20232;-62
2022/06/13 14:38:47;;;;;;;3.80;1.85;;;;;;;;;;5069381;28;20204;-62
2022/06/13 14:41:17;;;;;;;2.15;1.50;;;;;;;;;;5069291;28;20285;-62
2022/06/13 14:44:00;;;;;;;2.72;1.88;;;;;;;;;;5069219;28;20235;-62
2022/06/13 14:46:36;;;;;;;4.07;1.92;;;;;;;;;;5069019;28;20541;-62
2022/06/13 14:49:10;;;;;;;2.88;1.80;;;;;;;;;;5072089;28;20238;-62
2022/06/13 14:51:52;;;;;;;2.22;1.73;;;;;;;;;;5075423;28;20227;-62
2022/06/13 14:54:41;;;;;;;2.65;1.83;;;;;;;;;;5074344;28;20205;-62
2022/06/13 14:57:27;;;;;;;4.10;1.85;;;;;;;;;;5074879;28;20204;-62
2022/06/13 15:00:12;;;;;;;2.63;1.90;;;;;;;;;;5074238;28;20523;-62
2022/06/13 15:02:54;;;;;;;2.47;1.77;;;;;;;;;;5075483;28;20204;-62
2022/06/13 15:05:22;;;;;;;4.70;1.70;;;;;;;;;;5074554;28;20243;-62
2022/06/13 15:07:53;;;;;;;1.98;1.75;;;;;;;;;;5075228;28;20244;-62
2022/06/13 15:10:26;;;;;;;2.45;1.90;;;;;;;;;;5075124;28;20547;-62
2022/06/13 15:12:54;;;;;;;2.88;1.73;;;;;;;;;;5075144;28;20270;-62
2022/06/13 15:15:24;;;;;;;3.45;1.73;;;;;;;;;;5075052;28;20204;-62
2022/06/13 15:17:52;;;;;;;3.03;1.90;;;;;;;;;;5075152;28;20204;-62
2022/06/13 15:20:22;;;;;;;3.13;1.90;;;;;;;;;;5075231;28;20614;-62
2022/06/13 15:22:53;;;;;;;3.67;1.90;;;;;;;;;;5076220;28;20204;-62
2022/06/13 15:25:35;;;;;;;2.53;1.80;;;;;;;;;;5075064;28;20204;-62
2022/06/13 15:28:03;;;;;;;2.40;1.60;;;;;;;;;;5076155;28;20529;-62
2022/06/13 15:30:33;;;;;;;4.15;2.03;;;;;;;;;;5074795;28;20291;-62
2022/06/13 15:33:06;;;;;;;3.00;2.00;;;;;;;;;;5074348;28;20299;-62
2022/06/13 15:35:44;;;;;;;2.80;2.10;;;;;;;;;;5075097;28;20295;-62